createdAt,value
2018-02-13T00:00:43.174Z,48.83
2018-02-13T00:01:43.179Z,49.12
2018-02-13T00:02:22.163Z,48.74
2018-02-13T00:03:22.164Z,48.93
2018-02-13T00:04:22.588Z,48.74
2018-02-13T00:05:43.143Z,48.83
2018-02-13T00:06:43.128Z,49.02
2018-02-13T00:07:22.129Z,49.41
2018-02-13T00:08:22.116Z,49.51
2018-02-13T00:09:22.098Z,49.22
2018-02-13T00:10:43.121Z,49.22
2018-02-13T00:11:43.777Z,49.32
2018-02-13T00:12:22.137Z,49.60
2018-02-13T00:13:22.152Z,49.41
2018-02-13T00:14:22.069Z,49.41
2018-02-13T00:15:43.056Z,49.70
2018-02-13T00:16:43.073Z,49.70
2018-02-13T00:17:22.041Z,49.79
2018-02-13T00:18:22.032Z,49.79
2018-02-13T00:19:22.018Z,49.79
2018-02-13T00:20:43.023Z,49.70
2018-02-13T00:21:43.006Z,49.70
2018-02-13T00:22:22.065Z,49.60
2018-02-13T00:23:21.990Z,49.60
2018-02-13T00:24:21.977Z,49.41
2018-02-13T00:25:42.981Z,49.32
2018-02-13T00:26:42.970Z,49.60
2018-02-13T00:27:21.958Z,49.41
2018-02-13T00:28:22.803Z,49.32
2018-02-13T00:29:21.933Z,49.22
2018-02-13T00:30:42.944Z,49.60
2018-02-13T00:31:42.941Z,49.60
2018-02-13T00:32:21.906Z,49.51
2018-02-13T00:33:21.912Z,49.51
2018-02-13T00:34:22.731Z,49.79
2018-02-13T00:35:42.900Z,49.82
2018-02-13T00:36:42.884Z,49.60
2018-02-13T00:37:21.869Z,49.60
2018-02-13T00:38:21.858Z,49.51
2018-02-13T00:39:22.067Z,49.60
2018-02-13T00:40:42.846Z,49.70
2018-02-13T00:41:42.848Z,49.89
2018-02-13T00:42:21.857Z,49.51
2018-02-13T00:43:21.825Z,49.79
2018-02-13T00:44:21.814Z,49.70
2018-02-13T00:45:42.804Z,49.70
2018-02-13T00:46:42.795Z,49.70
2018-02-13T00:47:21.806Z,49.89
2018-02-13T00:48:21.773Z,49.89
2018-02-13T00:49:21.771Z,49.51
2018-02-13T00:50:42.775Z,49.99
2018-02-13T00:51:42.760Z,49.70
2018-02-13T00:52:21.857Z,49.70
2018-02-13T00:53:21.752Z,49.70
2018-02-13T00:54:21.739Z,50.09
2018-02-13T00:55:42.749Z,49.79
2018-02-13T00:56:42.717Z,50.09
2018-02-13T00:57:21.710Z,49.70
2018-02-13T00:58:21.719Z,49.70
2018-02-13T00:59:21.700Z,49.99
2018-02-13T01:00:42.734Z,49.60
2018-02-13T01:01:42.704Z,49.79
2018-02-13T01:02:21.703Z,49.79
2018-02-13T01:03:21.675Z,49.89
2018-02-13T01:04:21.687Z,49.70
2018-02-13T01:05:42.683Z,49.99
2018-02-13T01:06:42.674Z,49.99
2018-02-13T01:07:21.656Z,50.18
2018-02-13T01:08:21.630Z,49.70
2018-02-13T01:09:21.643Z,49.70
2018-02-13T01:10:42.642Z,49.70
2018-02-13T01:11:42.631Z,49.70
2018-02-13T01:12:21.608Z,50.09
2018-02-13T01:13:21.599Z,50.09
2018-02-13T01:14:21.596Z,49.70
2018-02-13T01:15:42.564Z,49.70
2018-02-13T01:16:42.606Z,50.09
2018-02-13T01:17:21.613Z,50.18
2018-02-13T01:18:21.533Z,50.09
2018-02-13T01:19:21.543Z,50.09
2018-02-13T01:20:42.545Z,50.09
2018-02-13T01:21:42.503Z,50.09
2018-02-13T01:22:21.513Z,50.09
2018-02-13T01:23:21.497Z,50.27
2018-02-13T01:24:21.489Z,50.27
2018-02-13T01:25:42.488Z,50.27
2018-02-13T01:26:42.484Z,50.18
2018-02-13T01:27:21.473Z,50.37
2018-02-13T01:28:21.452Z,50.09
2018-02-13T01:29:21.463Z,50.66
2018-02-13T01:30:42.457Z,50.66
2018-02-13T01:31:42.437Z,50.66
2018-02-13T01:32:21.433Z,50.37
2018-02-13T01:33:21.419Z,50.37
2018-02-13T01:34:21.415Z,50.27
2018-02-13T01:35:42.406Z,50.37
2018-02-13T01:36:42.402Z,50.37
2018-02-13T01:37:21.401Z,50.37
2018-02-13T01:38:21.408Z,50.27
2018-02-13T01:39:21.370Z,50.37
2018-02-13T01:40:42.370Z,50.18
2018-02-13T01:41:42.364Z,50.47
2018-02-13T01:42:21.345Z,50.37
2018-02-13T01:43:21.373Z,50.37
2018-02-13T01:44:21.338Z,50.47
2018-02-13T01:45:42.324Z,50.37
2018-02-13T01:46:42.327Z,50.37
2018-02-13T01:47:21.312Z,50.18
2018-02-13T01:48:21.300Z,50.18
2018-02-13T01:49:21.292Z,50.18
2018-02-13T01:50:42.287Z,50.27
2018-02-13T01:51:42.285Z,50.27
2018-02-13T01:52:21.275Z,50.27
2018-02-13T01:53:21.263Z,50.27
2018-02-13T01:54:21.250Z,50.27
2018-02-13T01:55:42.253Z,50.47
2018-02-13T01:56:42.240Z,50.37
2018-02-13T01:57:21.218Z,50.47
2018-02-13T01:58:21.228Z,50.27
2018-02-13T01:59:21.204Z,50.37
2018-02-13T02:00:42.205Z,50.37
2018-02-13T02:01:42.198Z,50.37
2018-02-13T02:02:21.195Z,50.37
2018-02-13T02:03:21.182Z,50.76
2018-02-13T02:04:21.173Z,50.85
2018-02-13T02:05:42.163Z,50.76
2018-02-13T02:06:42.153Z,50.76
2018-02-13T02:07:21.152Z,50.76
2018-02-13T02:08:21.129Z,50.37
2018-02-13T02:09:21.152Z,50.76
2018-02-13T02:10:42.129Z,50.85
2018-02-13T02:11:42.110Z,50.76
2018-02-13T02:12:21.104Z,50.76
2018-02-13T02:13:21.104Z,50.76
2018-02-13T02:14:21.116Z,50.66
2018-02-13T02:15:42.081Z,50.47
2018-02-13T02:16:42.076Z,50.47
2018-02-13T02:17:21.070Z,50.57
2018-02-13T02:18:21.061Z,50.47
2018-02-13T02:19:21.042Z,50.37
2018-02-13T02:20:42.046Z,50.95
2018-02-13T02:21:42.050Z,50.95
2018-02-13T02:22:21.043Z,50.85
2018-02-13T02:23:21.027Z,50.37
2018-02-13T02:24:21.000Z,50.66
2018-02-13T02:25:42.068Z,50.47
2018-02-13T02:26:41.993Z,50.57
2018-02-13T02:27:20.984Z,50.47
2018-02-13T02:28:20.979Z,50.76
2018-02-13T02:29:20.973Z,50.76
2018-02-13T02:30:41.959Z,50.57
2018-02-13T02:31:41.949Z,50.76
2018-02-13T02:32:20.936Z,50.76
2018-02-13T02:33:20.936Z,50.85
2018-02-13T02:34:20.922Z,50.85
2018-02-13T02:35:41.913Z,50.85
2018-02-13T02:36:41.925Z,50.95
2018-02-13T02:37:20.896Z,50.85
2018-02-13T02:38:20.894Z,50.76
2018-02-13T02:39:20.896Z,50.85
2018-02-13T02:40:41.884Z,50.85
2018-02-13T02:41:41.888Z,50.85
2018-02-13T02:42:20.873Z,50.85
2018-02-13T02:43:20.849Z,50.76
2018-02-13T02:44:20.849Z,51.05
2018-02-13T02:45:41.848Z,50.76
2018-02-13T02:46:41.827Z,50.95
2018-02-13T02:47:20.821Z,50.95
2018-02-13T02:48:20.811Z,50.95
2018-02-13T02:49:20.804Z,50.95
2018-02-13T02:50:41.797Z,50.95
2018-02-13T02:51:41.796Z,50.85
2018-02-13T02:52:20.786Z,51.43
2018-02-13T02:53:20.774Z,51.72
2018-02-13T02:54:20.769Z,51.43
2018-02-13T02:55:41.756Z,51.62
2018-02-13T02:56:41.766Z,51.62
2018-02-13T02:57:20.757Z,51.53
2018-02-13T02:58:20.734Z,51.53
2018-02-13T02:59:20.722Z,51.24
2018-02-13T03:00:41.740Z,51.34
2018-02-13T03:01:41.713Z,51.14
2018-02-13T03:02:20.713Z,51.34
2018-02-13T03:03:20.701Z,51.34
2018-02-13T03:04:20.688Z,50.95
2018-02-13T03:05:41.681Z,51.34
2018-02-13T03:06:41.667Z,51.05
2018-02-13T03:07:20.654Z,51.05
2018-02-13T03:08:20.645Z,51.14
2018-02-13T03:09:20.675Z,51.24
2018-02-13T03:10:41.634Z,50.85
2018-02-13T03:11:41.647Z,51.34
2018-02-13T03:12:20.612Z,51.43
2018-02-13T03:13:20.609Z,51.53
2018-02-13T03:14:20.603Z,51.62
2018-02-13T03:15:41.603Z,51.43
2018-02-13T03:16:41.609Z,51.24
2018-02-13T03:17:20.580Z,51.62
2018-02-13T03:18:20.566Z,51.34
2018-02-13T03:19:20.555Z,51.34
2018-02-13T03:20:41.562Z,51.43
2018-02-13T03:21:41.555Z,51.05
2018-02-13T03:22:20.530Z,51.24
2018-02-13T03:23:20.523Z,51.05
2018-02-13T03:24:20.516Z,51.05
2018-02-13T03:25:41.519Z,51.24
2018-02-13T03:26:41.502Z,51.05
2018-02-13T03:27:20.497Z,51.14
2018-02-13T03:28:20.495Z,51.14
2018-02-13T03:29:20.491Z,51.14
2018-02-13T03:30:41.499Z,51.14
2018-02-13T03:31:41.490Z,51.14
2018-02-13T03:32:20.464Z,51.14
2018-02-13T03:33:20.472Z,51.14
2018-02-13T03:34:20.431Z,51.14
2018-02-13T03:35:41.436Z,51.14
2018-02-13T03:36:41.429Z,50.95
2018-02-13T03:37:20.415Z,51.43
2018-02-13T03:38:20.409Z,50.76
2018-02-13T03:39:20.407Z,51.24
2018-02-13T03:40:41.393Z,50.85
2018-02-13T03:41:41.378Z,51.05
2018-02-13T03:42:20.372Z,51.24
2018-02-13T03:43:20.384Z,50.76
2018-02-13T03:44:20.372Z,51.34
2018-02-13T03:45:41.359Z,51.34
2018-02-13T03:46:41.352Z,51.53
2018-02-13T03:47:20.331Z,51.53
2018-02-13T03:48:20.342Z,51.53
2018-02-13T03:49:20.341Z,51.34
2018-02-13T03:50:41.307Z,51.34
2018-02-13T03:51:41.300Z,51.24
2018-02-13T03:52:20.284Z,51.43
2018-02-13T03:53:20.286Z,51.14
2018-02-13T03:54:20.272Z,51.72
2018-02-13T03:55:41.273Z,51.53
2018-02-13T03:56:41.267Z,51.53
2018-02-13T03:57:20.250Z,51.34
2018-02-13T03:58:20.235Z,51.53
2018-02-13T03:59:20.238Z,51.43
2018-02-13T04:00:41.258Z,51.05
2018-02-13T04:01:41.222Z,51.14
2018-02-13T04:02:20.207Z,51.14
2018-02-13T04:03:20.201Z,51.24
2018-02-13T04:04:20.241Z,51.24
2018-02-13T04:05:41.206Z,51.24
2018-02-13T04:06:41.188Z,51.24
2018-02-13T04:07:20.178Z,51.72
2018-02-13T04:08:20.165Z,50.78
2018-02-13T04:09:20.153Z,50.98
2018-02-13T04:10:41.145Z,50.98
2018-02-13T04:11:41.135Z,50.88
2018-02-13T04:12:20.127Z,50.88
2018-02-13T04:13:20.106Z,50.88
2018-02-13T04:14:20.118Z,50.88
2018-02-13T04:15:41.106Z,50.88
2018-02-13T04:16:41.116Z,50.78
2018-02-13T04:17:20.088Z,50.78
2018-02-13T04:18:20.089Z,50.98
2018-02-13T04:19:20.081Z,50.88
2018-02-13T04:20:41.058Z,50.78
2018-02-13T04:21:41.069Z,50.88
2018-02-13T04:22:20.048Z,50.78
2018-02-13T04:23:20.037Z,50.88
2018-02-13T04:24:20.033Z,50.88
2018-02-13T04:25:41.033Z,50.88
2018-02-13T04:26:41.012Z,50.88
2018-02-13T04:27:20.003Z,51.07
2018-02-13T04:28:20.003Z,50.98
2018-02-13T04:29:19.995Z,51.36
2018-02-13T04:30:40.996Z,51.46
2018-02-13T04:31:40.981Z,51.36
2018-02-13T04:32:19.968Z,51.36
2018-02-13T04:33:19.969Z,51.46
2018-02-13T04:34:19.957Z,51.36
2018-02-13T04:35:40.959Z,51.17
2018-02-13T04:36:40.946Z,51.46
2018-02-13T04:37:19.938Z,51.07
2018-02-13T04:38:19.921Z,51.46
2018-02-13T04:39:19.906Z,51.26
2018-02-13T04:40:40.905Z,51.36
2018-02-13T04:41:40.893Z,51.56
2018-02-13T04:42:19.884Z,51.36
2018-02-13T04:43:19.872Z,51.46
2018-02-13T04:44:19.898Z,51.56
2018-02-13T04:45:40.875Z,51.56
2018-02-13T04:46:40.873Z,51.56
2018-02-13T04:47:19.857Z,51.56
2018-02-13T04:48:19.826Z,51.56
2018-02-13T04:49:19.827Z,51.36
2018-02-13T04:50:40.834Z,50.98
2018-02-13T04:51:40.850Z,51.07
2018-02-13T04:52:19.807Z,51.26
2018-02-13T04:53:19.813Z,50.98
2018-02-13T04:54:19.785Z,51.17
2018-02-13T04:55:40.788Z,51.36
2018-02-13T04:56:40.791Z,51.26
2018-02-13T04:57:19.774Z,50.88
2018-02-13T04:58:19.767Z,51.56
2018-02-13T04:59:19.748Z,51.65
2018-02-13T05:00:40.745Z,51.46
2018-02-13T05:01:40.751Z,51.65
2018-02-13T05:02:19.750Z,51.56
2018-02-13T05:03:19.725Z,51.65
2018-02-13T05:04:19.707Z,51.56
2018-02-13T05:05:40.717Z,51.65
2018-02-13T05:06:40.701Z,51.65
2018-02-13T05:07:19.695Z,51.56
2018-02-13T05:08:19.680Z,51.46
2018-02-13T05:09:19.665Z,51.56
2018-02-13T05:10:40.678Z,51.26
2018-02-13T05:11:40.664Z,51.46
2018-02-13T05:12:19.651Z,51.36
2018-02-13T05:13:19.654Z,51.65
2018-02-13T05:14:19.636Z,51.65
2018-02-13T05:15:40.636Z,51.65
2018-02-13T05:16:40.624Z,51.46
2018-02-13T05:17:19.616Z,51.65
2018-02-13T05:18:19.606Z,51.36
2018-02-13T05:19:19.602Z,50.88
2018-02-13T05:20:40.593Z,51.56
2018-02-13T05:21:40.610Z,51.46
2018-02-13T05:22:19.560Z,51.46
2018-02-13T05:23:19.580Z,51.65
2018-02-13T05:24:19.549Z,51.26
2018-02-13T05:25:40.552Z,51.46
2018-02-13T05:26:40.550Z,51.56
2018-02-13T05:27:19.527Z,51.26
2018-02-13T05:28:19.538Z,51.56
2018-02-13T05:29:19.529Z,51.56
2018-02-13T05:30:40.513Z,51.65
2018-02-13T05:31:40.509Z,51.56
2018-02-13T05:32:19.497Z,51.56
2018-02-13T05:33:19.497Z,51.56
2018-02-13T05:34:19.507Z,51.46
2018-02-13T05:35:40.481Z,51.17
2018-02-13T05:36:40.464Z,51.17
2018-02-13T05:37:19.456Z,51.36
2018-02-13T05:38:19.460Z,51.65
2018-02-13T05:39:19.452Z,51.75
2018-02-13T05:40:40.433Z,51.75
2018-02-13T05:41:40.440Z,51.65
2018-02-13T05:42:19.453Z,51.84
2018-02-13T05:43:19.411Z,51.75
2018-02-13T05:44:19.443Z,51.84
2018-02-13T05:45:40.396Z,51.56
2018-02-13T05:46:40.406Z,51.56
2018-02-13T05:47:19.386Z,51.94
2018-02-13T05:48:19.385Z,51.84
2018-02-13T05:49:19.358Z,51.56
2018-02-13T05:50:40.364Z,51.65
2018-02-13T05:51:40.347Z,51.56
2018-02-13T05:52:19.333Z,51.65
2018-02-13T05:53:19.325Z,51.56
2018-02-13T05:54:19.312Z,51.65
2018-02-13T05:55:40.306Z,51.65
2018-02-13T05:56:40.299Z,51.65
2018-02-13T05:57:19.305Z,51.65
2018-02-13T05:58:19.285Z,51.56
2018-02-13T05:59:19.290Z,51.65
2018-02-13T06:00:40.317Z,51.84
2018-02-13T06:01:40.276Z,51.65
2018-02-13T06:02:19.298Z,51.65
2018-02-13T06:03:19.246Z,51.46
2018-02-13T06:04:19.237Z,51.84
2018-02-13T06:05:40.236Z,51.56
2018-02-13T06:06:40.222Z,51.65
2018-02-13T06:07:19.239Z,51.65
2018-02-13T06:08:19.201Z,51.56
2018-02-13T06:09:19.198Z,51.56
2018-02-13T06:10:40.188Z,51.65
2018-02-13T06:11:40.189Z,51.84
2018-02-13T06:12:19.177Z,51.84
2018-02-13T06:13:19.175Z,51.56
2018-02-13T06:14:19.161Z,51.56
2018-02-13T06:15:40.177Z,51.46
2018-02-13T06:16:40.140Z,51.84
2018-02-13T06:17:19.144Z,51.84
2018-02-13T06:18:19.136Z,51.84
2018-02-13T06:19:19.127Z,51.46
2018-02-13T06:20:40.117Z,51.75
2018-02-13T06:21:40.126Z,51.75
2018-02-13T06:22:19.103Z,51.84
2018-02-13T06:23:19.092Z,51.84
2018-02-13T06:24:19.076Z,51.65
2018-02-13T06:25:40.083Z,51.65
2018-02-13T06:26:40.073Z,51.56
2018-02-13T06:27:19.059Z,51.56
2018-02-13T06:28:19.054Z,51.36
2018-02-13T06:29:19.053Z,51.56
2018-02-13T06:30:40.036Z,51.36
2018-02-13T06:31:40.035Z,51.65
2018-02-13T06:32:19.016Z,51.65
2018-02-13T06:33:19.018Z,51.84
2018-02-13T06:34:18.995Z,51.84
2018-02-13T06:35:40.009Z,51.46
2018-02-13T06:36:39.997Z,51.84
2018-02-13T06:37:18.976Z,51.75
2018-02-13T06:38:18.985Z,51.84
2018-02-13T06:39:18.973Z,51.84
2018-02-13T06:40:39.954Z,51.46
2018-02-13T06:41:39.946Z,51.75
2018-02-13T06:42:18.943Z,51.84
2018-02-13T06:43:18.931Z,51.75
2018-02-13T06:44:18.932Z,51.84
2018-02-13T06:45:39.919Z,51.84
2018-02-13T06:46:39.923Z,51.84
2018-02-13T06:47:18.898Z,51.56
2018-02-13T06:48:18.901Z,51.84
2018-02-13T06:49:18.870Z,51.84
2018-02-13T06:50:39.901Z,51.84
2018-02-13T06:51:39.903Z,51.56
2018-02-13T06:52:18.862Z,51.56
2018-02-13T06:53:18.862Z,51.56
2018-02-13T06:54:18.847Z,51.36
2018-02-13T06:55:39.835Z,51.65
2018-02-13T06:56:39.831Z,51.56
2018-02-13T06:57:18.838Z,51.56
2018-02-13T06:58:18.824Z,51.65
2018-02-13T06:59:18.820Z,51.46
2018-02-13T07:00:39.788Z,51.36
2018-02-13T07:01:39.792Z,51.26
2018-02-13T07:02:18.768Z,51.36
2018-02-13T07:03:18.785Z,51.36
2018-02-13T07:04:18.757Z,51.65
2018-02-13T07:05:39.756Z,51.46
2018-02-13T07:06:39.769Z,51.75
2018-02-13T07:07:18.741Z,51.56
2018-02-13T07:08:18.738Z,51.75
2018-02-13T07:09:18.731Z,51.84
2018-02-13T07:10:39.730Z,52.04
2018-02-13T07:11:39.712Z,52.33
2018-02-13T07:12:18.703Z,52.13
2018-02-13T07:13:18.703Z,52.23
2018-02-13T07:14:18.691Z,52.04
2018-02-13T07:15:39.675Z,52.04
2018-02-13T07:16:39.677Z,52.04
2018-02-13T07:17:18.654Z,52.04
2018-02-13T07:18:18.648Z,52.13
2018-02-13T07:19:18.654Z,52.13
2018-02-13T07:20:39.637Z,52.04
2018-02-13T07:21:39.643Z,52.04
2018-02-13T07:22:18.616Z,52.04
2018-02-13T07:23:18.607Z,52.13
2018-02-13T07:24:18.609Z,52.04
2018-02-13T07:25:39.607Z,52.04
2018-02-13T07:26:39.614Z,51.94
2018-02-13T07:27:18.595Z,52.04
2018-02-13T07:28:18.564Z,51.94
2018-02-13T07:29:18.569Z,52.04
2018-02-13T07:30:39.561Z,52.04
2018-02-13T07:31:39.561Z,52.04
2018-02-13T07:32:18.577Z,52.04
2018-02-13T07:33:18.529Z,52.33
2018-02-13T07:34:18.523Z,52.33
2018-02-13T07:35:39.522Z,51.75
2018-02-13T07:36:39.515Z,51.26
2018-02-13T07:37:18.496Z,51.77
2018-02-13T07:38:18.517Z,51.56
2018-02-13T07:39:18.492Z,51.58
2018-02-13T07:40:39.496Z,51.58
2018-02-13T07:41:39.495Z,51.56
2018-02-13T07:42:18.458Z,51.29
2018-02-13T07:43:18.462Z,51.39
2018-02-13T07:44:18.443Z,51.87
2018-02-13T07:45:39.449Z,51.56
2018-02-13T07:46:39.448Z,51.65
2018-02-13T07:47:18.446Z,51.84
2018-02-13T07:48:18.419Z,51.36
2018-02-13T07:49:18.411Z,52.13
2018-02-13T07:50:39.423Z,52.42
2018-02-13T07:51:39.409Z,52.06
2018-02-13T07:52:18.395Z,52.04
2018-02-13T07:53:18.367Z,52.13
2018-02-13T07:54:18.494Z,51.84
2018-02-13T07:55:39.381Z,52.04
2018-02-13T07:56:39.360Z,52.13
2018-02-13T07:57:18.364Z,52.04
2018-02-13T07:58:18.366Z,52.13
2018-02-13T07:59:18.340Z,51.84
2018-02-13T08:00:39.339Z,52.04
2018-02-13T08:01:39.346Z,52.04
2018-02-13T08:02:18.331Z,52.13
2018-02-13T08:03:18.314Z,52.42
2018-02-13T08:04:18.333Z,52.33
2018-02-13T08:05:39.304Z,52.33
2018-02-13T08:06:39.292Z,52.33
2018-02-13T08:07:18.289Z,52.23
2018-02-13T08:08:18.267Z,52.33
2018-02-13T08:09:18.271Z,52.23
2018-02-13T08:10:39.250Z,52.23
2018-02-13T08:11:39.241Z,52.23
2018-02-13T08:12:18.235Z,52.04
2018-02-13T08:13:18.235Z,52.04
2018-02-13T08:14:18.212Z,51.84
2018-02-13T08:15:39.214Z,52.13
2018-02-13T08:16:39.219Z,52.04
2018-02-13T08:17:18.181Z,52.23
2018-02-13T08:18:18.182Z,51.94
2018-02-13T08:19:18.176Z,51.94
2018-02-13T08:20:39.188Z,52.04
2018-02-13T08:21:39.171Z,52.13
2018-02-13T08:22:18.152Z,52.13
2018-02-13T08:23:18.139Z,52.23
2018-02-13T08:24:18.136Z,52.04
2018-02-13T08:25:39.141Z,52.13
2018-02-13T08:26:39.135Z,52.13
2018-02-13T08:27:18.119Z,52.13
2018-02-13T08:28:18.098Z,52.23
2018-02-13T08:29:18.102Z,52.04
2018-02-13T08:30:39.086Z,52.23
2018-02-13T08:31:39.095Z,52.04
2018-02-13T08:32:18.092Z,52.13
2018-02-13T08:33:18.061Z,52.13
2018-02-13T08:34:18.074Z,52.33
2018-02-13T08:35:39.062Z,52.23
2018-02-13T08:36:39.043Z,52.23
2018-02-13T08:37:18.043Z,52.52
2018-02-13T08:38:18.030Z,52.33
2018-02-13T08:39:18.022Z,52.33
2018-02-13T08:40:39.012Z,52.23
2018-02-13T08:41:39.010Z,52.23
2018-02-13T08:42:17.984Z,52.33
2018-02-13T08:43:18.006Z,52.04
2018-02-13T08:44:17.982Z,51.87
2018-02-13T08:45:39.009Z,52.25
2018-02-13T08:46:38.973Z,52.13
2018-02-13T08:47:17.973Z,52.04
2018-02-13T08:48:17.944Z,52.06
2018-02-13T08:49:17.937Z,52.16
2018-02-13T08:50:38.955Z,52.16
2018-02-13T08:51:38.934Z,51.97
2018-02-13T08:52:17.921Z,52.06
2018-02-13T08:53:17.923Z,52.06
2018-02-13T08:54:17.907Z,51.97
2018-02-13T08:55:38.915Z,52.25
2018-02-13T08:56:38.903Z,52.06
2018-02-13T08:57:17.904Z,52.06
2018-02-13T08:58:17.893Z,52.06
2018-02-13T08:59:17.904Z,52.06
2018-02-13T09:00:38.855Z,51.97
2018-02-13T09:01:38.856Z,52.06
2018-02-13T09:02:17.835Z,52.06
2018-02-13T09:03:17.824Z,51.97
2018-02-13T09:04:17.831Z,52.16
2018-02-13T09:05:38.816Z,52.16
2018-02-13T09:06:38.828Z,52.16
2018-02-13T09:07:17.784Z,52.16
2018-02-13T09:08:17.797Z,52.13
2018-02-13T09:09:17.784Z,52.25
2018-02-13T09:10:38.790Z,51.97
2018-02-13T09:11:38.784Z,52.16
2018-02-13T09:12:17.774Z,52.16
2018-02-13T09:13:17.759Z,52.16
2018-02-13T09:14:17.749Z,52.55
2018-02-13T09:15:38.755Z,52.25
2018-02-13T09:16:38.741Z,52.35
2018-02-13T09:17:17.728Z,52.35
2018-02-13T09:18:17.717Z,52.16
2018-02-13T09:19:17.704Z,52.06
2018-02-13T09:20:38.695Z,52.16
2018-02-13T09:21:38.696Z,52.16
2018-02-13T09:22:17.689Z,52.35
2018-02-13T09:23:17.693Z,52.35
2018-02-13T09:24:17.691Z,52.06
2018-02-13T09:25:38.679Z,52.06
2018-02-13T09:26:38.679Z,52.06
2018-02-13T09:27:17.652Z,51.97
2018-02-13T09:28:17.654Z,52.06
2018-02-13T09:29:17.650Z,51.97
2018-02-13T09:30:38.632Z,52.16
2018-02-13T09:31:38.619Z,51.97
2018-02-13T09:32:17.607Z,52.47
2018-02-13T09:33:17.635Z,52.28
2018-02-13T09:34:17.590Z,52.25
2018-02-13T09:35:38.591Z,52.19
2018-02-13T09:36:38.655Z,52.47
2018-02-13T09:37:17.616Z,52.28
2018-02-13T09:38:17.574Z,52.28
2018-02-13T09:39:17.577Z,52.19
2018-02-13T09:40:38.566Z,52.37
2018-02-13T09:41:38.595Z,52.11
2018-02-13T09:42:17.532Z,52.40
2018-02-13T09:43:17.543Z,51.92
2018-02-13T09:44:17.533Z,52.11
2018-02-13T09:45:38.573Z,51.65
2018-02-13T09:46:38.539Z,51.65
2018-02-13T09:47:17.489Z,51.49
2018-02-13T09:48:17.496Z,51.29
2018-02-13T09:49:17.493Z,51.49
2018-02-13T09:50:38.523Z,51.03
2018-02-13T09:51:38.483Z,50.84
2018-02-13T09:52:17.473Z,50.65
2018-02-13T09:53:17.496Z,50.45
2018-02-13T09:54:17.501Z,50.76
2018-02-13T09:55:38.460Z,49.99
2018-02-13T09:56:38.450Z,49.80
2018-02-13T09:57:17.466Z,49.60
2018-02-13T09:58:17.436Z,48.83
2018-02-13T09:59:17.564Z,48.74
2018-02-13T10:00:38.453Z,48.16
2018-02-13T10:01:38.437Z,47.86
2018-02-13T10:02:17.423Z,47.38
2018-02-13T10:03:17.437Z,47.19
2018-02-13T10:04:17.400Z,46.70
2018-02-13T10:05:38.411Z,46.61
2018-02-13T10:06:38.394Z,46.70
2018-02-13T10:07:17.430Z,45.95
2018-02-13T10:08:17.370Z,45.95
2018-02-13T10:09:17.363Z,45.86
2018-02-13T10:10:38.361Z,45.86
2018-02-13T10:11:38.375Z,45.37
2018-02-13T10:12:17.353Z,45.18
2018-02-13T10:13:17.370Z,44.79
2018-02-13T10:14:17.355Z,45.08
2018-02-13T10:15:38.341Z,44.50
2018-02-13T10:16:38.337Z,45.20
2018-02-13T10:17:17.308Z,44.43
2018-02-13T10:18:17.313Z,44.81
2018-02-13T10:19:17.297Z,44.33
2018-02-13T10:20:38.293Z,43.75
2018-02-13T10:21:38.301Z,43.75
2018-02-13T10:22:17.303Z,43.85
2018-02-13T10:23:17.302Z,43.85
2018-02-13T10:24:17.292Z,43.65
2018-02-13T10:25:38.300Z,43.65
2018-02-13T10:26:38.278Z,44.04
2018-02-13T10:27:17.267Z,44.04
2018-02-13T10:28:17.257Z,43.37
2018-02-13T10:29:17.246Z,43.37
2018-02-13T10:30:38.272Z,43.37
2018-02-13T10:31:38.245Z,43.37
2018-02-13T10:32:17.227Z,43.19
2018-02-13T10:33:17.231Z,43.48
2018-02-13T10:34:17.222Z,43.58
2018-02-13T10:35:38.224Z,43.27
2018-02-13T10:36:38.216Z,43.09
2018-02-13T10:37:17.207Z,43.00
2018-02-13T10:38:17.215Z,43.09
2018-02-13T10:39:17.218Z,43.09
2018-02-13T10:40:38.192Z,43.19
2018-02-13T10:41:38.211Z,43.19
2018-02-13T10:42:17.226Z,43.19
2018-02-13T10:43:17.173Z,43.19
2018-02-13T10:44:17.189Z,42.71
2018-02-13T10:45:38.168Z,42.71
2018-02-13T10:46:38.176Z,42.71
2018-02-13T10:47:17.148Z,42.90
2018-02-13T10:48:17.152Z,42.61
2018-02-13T10:49:17.147Z,42.80
2018-02-13T10:50:38.163Z,42.80
2018-02-13T10:51:38.141Z,42.80
2018-02-13T10:52:17.124Z,42.71
2018-02-13T10:53:17.122Z,42.61
2018-02-13T10:54:17.115Z,42.71
2018-02-13T10:55:38.498Z,42.41
2018-02-13T10:56:38.124Z,42.61
2018-02-13T10:57:17.109Z,42.49
2018-02-13T10:58:17.099Z,42.51
2018-02-13T10:59:17.125Z,42.20
2018-02-13T11:00:38.082Z,42.49
2018-02-13T11:01:38.145Z,42.71
2018-02-13T11:02:17.065Z,42.71
2018-02-13T11:03:17.075Z,42.61
2018-02-13T11:04:17.074Z,42.59
2018-02-13T11:05:38.065Z,42.51
2018-02-13T11:06:38.089Z,42.13
2018-02-13T11:07:17.032Z,42.30
2018-02-13T11:08:17.065Z,42.30
2018-02-13T11:09:17.054Z,42.41
2018-02-13T11:10:38.074Z,42.10
2018-02-13T11:11:38.026Z,42.59
2018-02-13T11:12:17.011Z,42.20
2018-02-13T11:13:17.012Z,42.76
2018-02-13T11:14:17.502Z,42.66
2018-02-13T11:15:38.708Z,43.15
2018-02-13T11:16:38.018Z,43.23
2018-02-13T11:17:16.981Z,43.41
2018-02-13T11:18:16.991Z,43.13
2018-02-13T11:19:17.011Z,43.32
2018-02-13T11:20:37.982Z,43.51
2018-02-13T11:21:37.991Z,43.32
2018-02-13T11:22:16.967Z,43.10
2018-02-13T11:23:16.960Z,43.13
2018-02-13T11:24:16.957Z,43.32
2018-02-13T11:25:37.959Z,43.03
2018-02-13T11:26:37.937Z,43.41
2018-02-13T11:27:16.959Z,43.51
2018-02-13T11:28:16.936Z,43.03
2018-02-13T11:29:16.926Z,42.93
2018-02-13T11:30:37.928Z,42.96
2018-02-13T11:31:37.935Z,43.15
2018-02-13T11:32:16.908Z,42.57
2018-02-13T11:33:16.900Z,42.66
2018-02-13T11:34:16.895Z,42.86
2018-02-13T11:35:37.898Z,42.76
2018-02-13T11:36:37.888Z,42.86
2018-02-13T11:37:16.910Z,42.66
2018-02-13T11:38:16.872Z,42.66
2018-02-13T11:39:16.862Z,42.66
2018-02-13T11:40:37.852Z,42.66
2018-02-13T11:41:37.864Z,42.66
2018-02-13T11:42:16.866Z,42.76
2018-02-13T11:43:16.873Z,42.66
2018-02-13T11:44:16.822Z,42.66
2018-02-13T11:45:37.852Z,42.66
2018-02-13T11:46:37.823Z,42.66
2018-02-13T11:47:16.847Z,42.47
2018-02-13T11:48:16.825Z,42.76
2018-02-13T11:49:16.809Z,42.76
2018-02-13T11:50:37.831Z,42.86
2018-02-13T11:51:37.817Z,42.66
2018-02-13T11:52:16.798Z,42.76
2018-02-13T11:53:17.019Z,42.65
2018-02-13T11:54:16.778Z,42.65
2018-02-13T11:55:37.808Z,42.93
2018-02-13T11:56:37.804Z,43.03
2018-02-13T11:57:16.778Z,43.41
2018-02-13T11:58:16.765Z,43.10
2018-02-13T11:59:16.740Z,43.20
2018-02-13T12:00:37.734Z,43.30
2018-02-13T12:01:37.771Z,43.30
2018-02-13T12:02:16.734Z,43.10
2018-02-13T12:03:16.756Z,43.40
2018-02-13T12:04:16.715Z,43.10
2018-02-13T12:05:37.718Z,43.68
2018-02-13T12:06:37.746Z,43.59
2018-02-13T12:07:16.690Z,43.49
2018-02-13T12:08:16.696Z,43.49
2018-02-13T12:09:16.670Z,43.20
2018-02-13T12:10:37.682Z,43.30
2018-02-13T12:11:37.694Z,43.30
2018-02-13T12:12:16.646Z,43.23
2018-02-13T12:13:16.650Z,43.20
2018-02-13T12:14:16.653Z,43.10
2018-02-13T12:15:37.709Z,43.30
2018-02-13T12:16:37.641Z,43.40
2018-02-13T12:17:16.651Z,43.68
2018-02-13T12:18:16.642Z,43.88
2018-02-13T12:19:16.625Z,43.57
2018-02-13T12:20:37.624Z,43.66
2018-02-13T12:21:37.608Z,43.95
2018-02-13T12:22:16.616Z,43.76
2018-02-13T12:23:16.596Z,44.24
2018-02-13T12:24:16.599Z,44.24
2018-02-13T12:25:37.594Z,44.15
2018-02-13T12:26:37.589Z,44.34
2018-02-13T12:27:16.575Z,44.05
2018-02-13T12:28:16.559Z,44.15
2018-02-13T12:29:16.559Z,43.76
2018-02-13T12:30:37.547Z,43.88
2018-02-13T12:31:37.546Z,43.76
2018-02-13T12:32:16.532Z,43.85
2018-02-13T12:33:16.540Z,43.66
2018-02-13T12:34:16.522Z,44.24
2018-02-13T12:35:37.536Z,44.24
2018-02-13T12:36:37.514Z,44.15
2018-02-13T12:37:16.508Z,44.15
2018-02-13T12:38:19.315Z,44.34
2018-02-13T12:39:16.490Z,44.24
2018-02-13T12:40:37.476Z,44.15
2018-02-13T12:41:37.546Z,44.15
2018-02-13T12:42:16.490Z,44.15
2018-02-13T12:43:16.463Z,43.85
2018-02-13T12:44:16.480Z,43.85
2018-02-13T12:45:37.463Z,44.05
2018-02-13T12:46:37.467Z,44.43
2018-02-13T12:47:16.452Z,44.24
2018-02-13T12:48:16.457Z,44.05
2018-02-13T12:49:16.442Z,44.34
2018-02-13T12:50:37.432Z,44.73
2018-02-13T12:51:37.661Z,44.53
2018-02-13T12:52:16.412Z,44.34